createdAt,value
2018-02-21T00:00:09.436Z,27.40
2018-02-21T00:02:38.325Z,30.92
2018-02-21T00:05:07.230Z,28.70
2018-02-21T00:07:36.083Z,27.85
2018-02-21T00:10:05.683Z,26.27
2018-02-21T00:12:34.515Z,24.55
2018-02-21T00:15:03.545Z,25.42
2018-02-21T00:17:32.371Z,26.73
2018-02-21T00:20:01.266Z,26.50
2018-02-21T00:22:30.089Z,29.58
2018-02-21T00:24:59.522Z,27.00
2018-02-21T00:27:28.360Z,27.70
2018-02-21T00:29:57.246Z,31.00
2018-02-21T00:32:26.166Z,28.52
2018-02-21T00:34:55.039Z,30.10
2018-02-21T00:37:24.498Z,26.87
2018-02-21T00:39:53.396Z,28.38
2018-02-21T00:42:22.220Z,30.50
2018-02-21T00:44:51.075Z,26.25
2018-02-21T00:47:19.893Z,28.92
2018-02-21T00:49:48.721Z,25.55
2018-02-21T00:52:17.556Z,29.58
2018-02-21T00:54:46.381Z,28.55
2018-02-21T00:57:15.221Z,28.33
2018-02-21T00:59:44.062Z,28.30
2018-02-21T01:02:12.881Z,28.55
2018-02-21T01:04:41.747Z,28.38
2018-02-21T01:07:10.583Z,27.27
2018-02-21T01:09:39.396Z,25.70
2018-02-21T01:12:08.285Z,25.45
2018-02-21T01:14:37.094Z,25.10
2018-02-21T01:17:05.982Z,25.30
2018-02-21T01:19:34.816Z,24.08
2018-02-21T01:22:03.652Z,26.58
2018-02-21T01:24:32.547Z,23.67
2018-02-21T01:27:01.395Z,25.92
2018-02-21T01:29:30.226Z,24.23
2018-02-21T01:31:59.044Z,24.70
2018-02-21T01:34:27.921Z,22.17
2018-02-21T01:36:56.732Z,20.60
2018-02-21T01:39:25.576Z,19.98
2018-02-21T01:41:54.954Z,22.60
2018-02-21T01:44:23.869Z,20.42
2018-02-21T01:46:52.703Z,21.70
2018-02-21T01:49:21.590Z,20.40
2018-02-21T01:51:50.936Z,20.25
2018-02-21T01:54:19.749Z,19.40
2018-02-21T01:56:48.584Z,21.67
2018-02-21T01:59:17.452Z,21.52
2018-02-21T02:01:46.288Z,21.37
2018-02-21T02:04:15.136Z,21.33
2018-02-21T02:06:43.981Z,21.30
2018-02-21T02:09:12.789Z,19.95
2018-02-21T02:11:41.621Z,21.35
2018-02-21T02:14:10.470Z,25.30
2018-02-21T02:16:39.301Z,20.52
2018-02-21T02:19:08.121Z,21.23
2018-02-21T02:21:36.954Z,20.50
2018-02-21T02:24:05.796Z,20.27
2018-02-21T02:26:34.617Z,20.08
2018-02-21T02:29:03.520Z,21.98
2018-02-21T02:31:32.467Z,22.75
2018-02-21T02:34:01.273Z,20.15
2018-02-21T02:36:30.123Z,20.25
2018-02-21T02:39:04.720Z,21.25
2018-02-21T02:41:33.561Z,20.45
2018-02-21T02:44:02.375Z,21.08
2018-02-21T02:46:31.247Z,21.58
2018-02-21T02:49:00.056Z,19.58
2018-02-21T02:51:28.895Z,20.85
2018-02-21T02:53:57.841Z,21.58
2018-02-21T02:56:26.652Z,20.33
2018-02-21T02:58:55.488Z,22.65
2018-02-21T03:01:24.319Z,21.58
2018-02-21T03:03:53.159Z,22.92
2018-02-21T03:06:22.032Z,21.95
2018-02-21T03:08:50.836Z,23.35
2018-02-21T03:11:19.710Z,20.08
2018-02-21T03:13:48.537Z,23.55
2018-02-21T03:16:17.376Z,24.42
2018-02-21T03:18:46.188Z,25.30
2018-02-21T03:21:15.046Z,22.05
2018-02-21T03:23:43.879Z,24.65
2018-02-21T03:26:12.817Z,24.05
2018-02-21T03:28:41.632Z,23.83
2018-02-21T03:31:10.458Z,23.62
2018-02-21T03:33:39.287Z,25.45
2018-02-21T03:36:08.125Z,25.20
2018-02-21T03:38:36.940Z,23.27
2018-02-21T03:41:05.779Z,24.12
2018-02-21T03:43:34.592Z,22.23
2018-02-21T03:46:03.433Z,26.33
2018-02-21T03:48:32.290Z,26.05
2018-02-21T03:51:01.106Z,28.12
2018-02-21T03:53:29.944Z,28.10
2018-02-21T03:55:58.769Z,24.83
2018-02-21T03:58:27.659Z,27.58
2018-02-21T04:00:56.464Z,28.50
2018-02-21T04:03:25.407Z,28.52
2018-02-21T04:05:54.213Z,27.80
2018-02-21T04:08:23.044Z,26.80
2018-02-21T04:10:51.873Z,26.67
2018-02-21T04:13:20.694Z,25.23
2018-02-21T04:15:49.536Z,29.77
2018-02-21T04:18:18.366Z,27.58
2018-02-21T04:20:47.200Z,28.30
2018-02-21T04:23:16.019Z,27.83
2018-02-21T04:25:44.849Z,29.08
2018-02-21T04:28:13.714Z,29.05
2018-02-21T04:30:42.513Z,28.42
2018-02-21T04:33:11.344Z,26.48
2018-02-21T04:35:40.157Z,27.62
2018-02-21T04:38:09.036Z,26.27
2018-02-21T04:40:37.847Z,25.17
2018-02-21T04:43:06.650Z,26.80
2018-02-21T04:45:35.576Z,27.08
2018-02-21T04:48:04.407Z,25.42
2018-02-21T04:50:33.224Z,24.20
2018-02-21T04:53:02.259Z,23.48
2018-02-21T04:55:37.977Z,24.75
2018-02-21T04:58:26.701Z,24.35
2018-02-21T05:00:55.547Z,29.92
2018-02-21T05:03:24.372Z,26.52
2018-02-21T05:05:53.221Z,24.50
2018-02-21T05:08:22.023Z,24.77
2018-02-21T05:10:50.951Z,22.75
2018-02-21T05:13:19.934Z,22.10
2018-02-21T05:15:48.785Z,23.12
2018-02-21T05:18:17.626Z,23.65
2018-02-21T05:20:46.448Z,22.23
2018-02-21T05:23:15.285Z,23.17
2018-02-21T05:25:44.177Z,21.83
2018-02-21T05:28:13.016Z,22.05
2018-02-21T05:30:41.840Z,20.50
2018-02-21T05:33:10.654Z,21.45
2018-02-21T05:35:39.489Z,23.05
2018-02-21T05:38:08.301Z,22.45
2018-02-21T05:40:37.140Z,21.05
2018-02-21T05:43:05.950Z,22.37
2018-02-21T05:45:34.801Z,21.52
2018-02-21T05:48:03.610Z,21.77
2018-02-21T05:50:32.429Z,21.55
2018-02-21T05:53:01.296Z,20.92
2018-02-21T05:55:30.113Z,21.87
2018-02-21T05:57:58.933Z,19.87
2018-02-21T06:00:27.761Z,20.20
2018-02-21T06:02:56.593Z,19.15
2018-02-21T06:05:25.414Z,19.75
2018-02-21T06:07:54.271Z,18.65
2018-02-21T06:10:23.088Z,19.30
2018-02-21T06:12:51.931Z,20.27
2018-02-21T06:15:20.762Z,19.42
2018-02-21T06:17:49.582Z,21.40
2018-02-21T06:20:18.433Z,22.58
2018-02-21T06:22:47.312Z,22.08
2018-02-21T06:25:16.158Z,22.77
2018-02-21T06:27:44.979Z,23.35
2018-02-21T06:30:13.814Z,22.67
2018-02-21T06:32:42.631Z,23.10
2018-02-21T06:35:11.510Z,23.80
2018-02-21T06:37:40.322Z,24.80
2018-02-21T06:40:09.138Z,22.80
2018-02-21T06:42:37.973Z,22.98
2018-02-21T06:45:06.831Z,23.15
2018-02-21T06:47:35.675Z,23.20
2018-02-21T06:50:04.502Z,23.70
2018-02-21T06:52:33.353Z,23.42
2018-02-21T06:55:02.196Z,24.23
2018-02-21T06:57:31.038Z,24.60
2018-02-21T06:59:59.877Z,26.67
2018-02-21T07:02:34.796Z,24.52
2018-02-21T07:05:03.646Z,24.92
2018-02-21T07:07:32.465Z,26.77
2018-02-21T07:10:01.321Z,27.98
2018-02-21T07:12:30.134Z,26.83
2018-02-21T07:14:59.045Z,26.17
2018-02-21T07:17:27.854Z,25.75
2018-02-21T07:19:56.701Z,28.08
2018-02-21T07:22:25.541Z,26.15
2018-02-21T07:24:54.344Z,27.35
2018-02-21T07:27:23.181Z,27.33
2018-02-21T07:29:52.009Z,27.02
2018-02-21T07:32:20.925Z,28.00
2018-02-21T07:34:49.770Z,27.42
2018-02-21T07:37:18.650Z,25.58
2018-02-21T07:39:47.504Z,27.02
2018-02-21T07:42:16.429Z,26.92
2018-02-21T07:44:45.293Z,25.77
2018-02-21T07:47:14.106Z,28.73
2018-02-21T07:49:42.952Z,28.55
2018-02-21T07:52:11.780Z,29.02
2018-02-21T07:54:40.634Z,26.92
2018-02-21T07:57:09.466Z,29.45
2018-02-21T07:59:38.311Z,28.50
2018-02-21T08:02:07.137Z,28.10
2018-02-21T08:04:35.962Z,27.85
2018-02-21T08:07:04.820Z,29.85
2018-02-21T08:09:33.638Z,28.92
2018-02-21T08:12:02.516Z,28.00
2018-02-21T08:14:31.325Z,31.50
2018-02-21T08:17:00.202Z,29.17
2018-02-21T08:19:29.005Z,29.27
2018-02-21T08:21:57.808Z,28.83
2018-02-21T08:24:26.678Z,28.62
2018-02-21T08:26:55.502Z,29.37
2018-02-21T08:29:24.317Z,28.48
2018-02-21T08:31:53.166Z,28.62
2018-02-21T08:34:21.993Z,25.92
2018-02-21T08:36:50.836Z,28.17
2018-02-21T08:39:19.671Z,27.02
2018-02-21T08:41:48.524Z,27.87
2018-02-21T08:44:17.344Z,29.58
2018-02-21T08:46:46.222Z,29.83
2018-02-21T08:49:15.488Z,29.40
2018-02-21T08:51:44.434Z,29.87
2018-02-21T08:54:13.353Z,30.80
2018-02-21T08:56:42.194Z,30.73
2018-02-21T08:59:11.038Z,28.62
2018-02-21T09:01:39.876Z,30.55
2018-02-21T09:04:08.702Z,27.75
2018-02-21T09:06:37.516Z,29.42
2018-02-21T09:09:06.351Z,28.80
2018-02-21T09:11:35.185Z,28.87
2018-02-21T09:14:04.029Z,29.95
2018-02-21T09:16:32.956Z,27.30
2018-02-21T09:19:01.745Z,29.30
2018-02-21T09:21:30.584Z,28.85
2018-02-21T09:23:59.694Z,29.90
2018-02-21T09:26:28.554Z,30.88
2018-02-21T09:28:57.431Z,32.53
2018-02-21T09:31:26.276Z,29.98
2018-02-21T09:33:55.101Z,33.03
2018-02-21T09:36:23.935Z,32.05
2018-02-21T09:38:52.873Z,33.03
2018-02-21T09:41:21.706Z,32.97
2018-02-21T09:43:50.683Z,31.02
2018-02-21T09:46:19.529Z,33.08
2018-02-21T09:48:48.371Z,28.40
2018-02-21T09:51:17.210Z,29.00
2018-02-21T09:53:46.095Z,30.83
2018-02-21T09:56:14.925Z,30.65
2018-02-21T09:58:43.749Z,31.25
2018-02-21T10:01:12.605Z,30.48
2018-02-21T10:03:41.484Z,31.12
2018-02-21T10:06:10.323Z,30.70
2018-02-21T10:08:39.143Z,30.25
2018-02-21T10:11:08.019Z,36.13
2018-02-21T10:13:36.837Z,29.35
2018-02-21T10:16:05.660Z,43.25
2018-02-21T10:18:34.514Z,31.15
2018-02-21T10:21:03.334Z,39.40
2018-02-21T10:23:32.213Z,39.20
2018-02-21T10:26:01.050Z,27.05
2018-02-21T10:28:29.894Z,30.45
2018-02-21T10:30:58.727Z,36.40
2018-02-21T10:33:27.563Z,32.35
2018-02-21T10:35:56.433Z,38.30
2018-02-21T10:38:25.273Z,36.08
2018-02-21T10:40:54.125Z,34.38
2018-02-21T10:43:23.003Z,38.97
2018-02-21T10:45:51.820Z,33.97
2018-02-21T10:48:20.638Z,32.13
2018-02-21T10:50:49.481Z,34.13
2018-02-21T10:53:18.329Z,33.00
2018-02-21T10:55:47.197Z,30.20
2018-02-21T10:58:16.057Z,33.95
2018-02-21T11:00:50.787Z,33.25
2018-02-21T11:03:19.629Z,34.10
2018-02-21T11:05:48.587Z,33.90
2018-02-21T11:08:17.449Z,33.92
2018-02-21T11:10:46.249Z,34.42
2018-02-21T11:13:15.119Z,31.50
2018-02-21T11:15:43.935Z,31.10
2018-02-21T11:18:12.828Z,31.42
2018-02-21T11:20:41.711Z,37.15
2018-02-21T11:23:10.543Z,30.95
2018-02-21T11:25:39.404Z,32.25
2018-02-21T11:28:08.204Z,32.63
2018-02-21T11:30:37.869Z,34.60
2018-02-21T11:33:06.700Z,38.78
2018-02-21T11:35:35.543Z,32.38
2018-02-21T11:38:04.379Z,30.50
2018-02-21T11:43:08.530Z,33.03
2018-02-21T11:45:37.377Z,32.90
2018-02-21T11:48:06.215Z,33.03
2018-02-21T11:50:35.060Z,34.13
2018-02-21T11:53:03.913Z,32.53
2018-02-21T11:55:32.741Z,35.17
2018-02-21T11:58:01.597Z,34.10
2018-02-21T12:00:30.417Z,36.10
2018-02-21T12:02:59.249Z,34.80
2018-02-21T12:05:28.095Z,35.45
2018-02-21T12:07:56.930Z,35.83
2018-02-21T12:10:25.796Z,33.42
2018-02-21T12:12:54.631Z,33.53
2018-02-21T12:15:23.481Z,31.98
2018-02-21T12:17:52.320Z,31.65
2018-02-21T12:20:21.190Z,32.92
2018-02-21T12:22:50.019Z,31.87
2018-02-21T12:25:18.830Z,33.00
2018-02-21T12:27:47.701Z,31.05
2018-02-21T12:30:16.512Z,33.65
2018-02-21T12:32:50.277Z,31.12
2018-02-21T12:35:19.114Z,30.02
2018-02-21T12:37:47.954Z,31.00
2018-02-21T12:40:22.665Z,30.88
2018-02-21T12:42:51.513Z,33.03
2018-02-21T12:45:20.407Z,30.48
2018-02-21T12:47:49.290Z,36.72
2018-02-21T12:50:18.287Z,32.20
2018-02-21T12:52:47.084Z,31.15
2018-02-21T12:55:15.912Z,32.20
2018-02-21T12:57:44.733Z,29.60
2018-02-21T13:00:13.612Z,35.55
2018-02-21T13:02:42.456Z,30.70
2018-02-21T13:05:11.288Z,29.07
2018-02-21T13:07:40.230Z,28.70
2018-02-21T13:10:09.003Z,30.90
2018-02-21T13:12:37.868Z,33.43
2018-02-21T13:15:06.697Z,30.53
2018-02-21T13:17:35.528Z,31.60
2018-02-21T13:20:05.401Z,30.77
2018-02-21T13:22:34.767Z,30.23
2018-02-21T13:25:04.928Z,31.67
2018-02-21T13:27:33.761Z,29.43
2018-02-21T13:30:02.689Z,29.53
2018-02-21T13:32:31.521Z,30.47
2018-02-21T13:35:00.445Z,30.57
2018-02-21T13:37:30.025Z,33.20
2018-02-21T13:39:58.874Z,28.97
2018-02-21T13:42:27.704Z,32.43
2018-02-21T13:44:56.536Z,35.07
2018-02-21T13:47:25.372Z,29.20
2018-02-21T13:49:54.219Z,29.20
2018-02-21T13:52:23.067Z,30.00
2018-02-21T13:54:51.912Z,33.37
2018-02-21T13:57:20.748Z,32.60
2018-02-21T13:59:49.588Z,29.20
2018-02-21T14:02:19.271Z,29.63
2018-02-21T14:04:48.163Z,30.53
2018-02-21T14:07:16.990Z,30.57
2018-02-21T14:09:45.916Z,29.10
2018-02-21T14:12:14.819Z,30.80
2018-02-21T14:14:43.729Z,30.73
2018-02-21T14:17:12.573Z,28.77
2018-02-21T14:19:41.437Z,28.87
2018-02-21T14:22:10.289Z,28.77
2018-02-21T14:24:39.112Z,28.10
2018-02-21T14:27:07.953Z,29.60
2018-02-21T14:29:36.773Z,29.07
2018-02-21T14:32:05.597Z,30.87
2018-02-21T14:34:34.452Z,29.87
2018-02-21T14:37:03.303Z,28.47
2018-02-21T14:39:32.118Z,27.63
2018-02-21T14:42:00.928Z,28.97
2018-02-21T14:44:29.785Z,26.80
2018-02-21T14:46:58.601Z,27.67
2018-02-21T14:49:27.503Z,26.50
2018-02-21T14:51:56.338Z,30.10
2018-02-21T14:54:25.212Z,27.23
2018-02-21T14:56:54.043Z,28.70
2018-02-21T14:59:23.346Z,26.90
2018-02-21T15:01:52.275Z,28.43
2018-02-21T15:04:21.223Z,26.93
2018-02-21T15:06:50.272Z,25.77
2018-02-21T15:09:19.128Z,25.60
2018-02-21T15:11:48.051Z,27.37
2018-02-21T15:14:16.939Z,27.50
2018-02-21T15:16:45.803Z,30.17
2018-02-21T15:19:14.639Z,30.73
2018-02-21T15:21:43.508Z,27.37
2018-02-21T15:24:12.385Z,28.67
2018-02-21T15:26:41.310Z,26.90
2018-02-21T15:29:10.172Z,29.53
2018-02-21T15:31:39.049Z,27.03
2018-02-21T15:34:07.950Z,26.53
2018-02-21T15:36:36.802Z,26.13
2018-02-21T15:39:05.694Z,25.30
2018-02-21T15:41:34.509Z,28.80
2018-02-21T15:44:03.368Z,31.27
2018-02-21T15:46:32.216Z,34.77
2018-02-21T15:49:01.078Z,33.43
2018-02-21T15:51:29.897Z,25.47
2018-02-21T15:53:58.804Z,25.20
2018-02-21T15:56:27.625Z,32.60
2018-02-21T15:58:56.630Z,33.97
2018-02-21T16:01:25.499Z,23.60
2018-02-21T16:03:54.375Z,25.73
2018-02-21T16:06:24.143Z,27.23
2018-02-21T16:08:53.062Z,27.97
2018-02-21T16:11:21.962Z,26.33
2018-02-21T16:13:50.914Z,26.73
2018-02-21T16:16:19.854Z,26.23
2018-02-21T16:18:48.715Z,25.90
2018-02-21T16:21:17.534Z,32.58
2018-02-21T16:23:46.409Z,27.20
2018-02-21T16:26:15.278Z,26.30
2018-02-21T16:28:44.137Z,30.20
2018-02-21T16:31:13.001Z,26.12
2018-02-21T16:33:41.853Z,24.55
2018-02-21T16:36:10.797Z,24.12
2018-02-21T16:38:39.686Z,24.52
2018-02-21T16:41:08.883Z,22.67
2018-02-21T16:43:37.739Z,41.30
2018-02-21T16:46:07.209Z,45.38
2018-02-21T16:48:36.050Z,33.42
2018-02-21T16:51:04.926Z,27.90
2018-02-21T16:53:33.806Z,24.08
2018-02-21T16:56:02.702Z,23.92
2018-02-21T16:58:31.535Z,22.52
2018-02-21T17:01:00.371Z,24.15
2018-02-21T17:03:29.237Z,21.58
2018-02-21T17:05:58.098Z,22.60
2018-02-21T17:08:26.957Z,25.40
2018-02-21T17:10:55.805Z,26.42
2018-02-21T17:13:24.663Z,24.95
2018-02-21T17:15:53.504Z,24.35
2018-02-21T17:18:22.354Z,23.48
2018-02-21T17:20:51.311Z,28.17
2018-02-21T17:23:20.171Z,25.33
2018-02-21T17:25:49.031Z,31.65
2018-02-21T17:28:17.909Z,28.90
2018-02-21T17:30:46.749Z,30.67
2018-02-21T17:33:15.616Z,27.65
2018-02-21T17:35:44.465Z,22.52
2018-02-21T17:38:13.326Z,23.87
2018-02-21T17:40:47.993Z,24.55
2018-02-21T17:43:16.944Z,21.70
2018-02-21T17:45:45.825Z,23.58
2018-02-21T17:48:14.693Z,23.70
2018-02-21T17:50:43.565Z,22.92
2018-02-21T17:53:12.423Z,24.45
2018-02-21T17:55:41.284Z,24.05
2018-02-21T17:58:10.113Z,25.23
2018-02-21T18:00:39.029Z,22.87
2018-02-21T18:03:07.868Z,23.30
2018-02-21T18:05:36.709Z,22.65
2018-02-21T18:08:06.479Z,27.02
2018-02-21T18:10:35.327Z,31.85
2018-02-21T18:13:04.215Z,24.08
2018-02-21T18:15:33.063Z,23.40
2018-02-21T18:18:01.916Z,26.23
2018-02-21T18:20:30.786Z,36.95
2018-02-21T18:22:59.642Z,24.35
2018-02-21T18:25:28.507Z,23.50
2018-02-21T18:27:57.389Z,23.52
2018-02-21T18:30:26.249Z,24.05
2018-02-21T18:32:55.097Z,30.20
2018-02-21T18:35:24.397Z,38.95
2018-02-21T18:37:53.293Z,23.33
2018-02-21T18:40:22.157Z,22.02
2018-02-21T18:42:50.976Z,30.35
2018-02-21T18:45:19.928Z,24.50
2018-02-21T18:47:48.812Z,24.42
2018-02-21T18:50:17.665Z,22.60
2018-02-21T18:52:46.526Z,23.15
2018-02-21T18:55:15.386Z,22.42
2018-02-21T18:57:44.323Z,22.52
2018-02-21T19:00:13.188Z,22.65
2018-02-21T19:02:42.022Z,22.20
2018-02-21T19:05:10.906Z,22.25
2018-02-21T19:07:39.801Z,20.08
2018-02-21T19:10:08.686Z,24.33
2018-02-21T19:12:37.537Z,25.25
2018-02-21T19:15:06.369Z,21.45
2018-02-21T19:17:35.288Z,24.90
2018-02-21T19:20:04.114Z,23.12
2018-02-21T19:22:32.961Z,22.83
2018-02-21T19:25:01.891Z,20.92
2018-02-21T19:27:30.723Z,22.30
2018-02-21T19:29:59.555Z,22.48
2018-02-21T19:32:28.429Z,22.92
2018-02-21T19:34:57.305Z,23.75
2018-02-21T19:37:26.182Z,21.33
2018-02-21T19:39:55.011Z,21.52
2018-02-21T19:42:23.947Z,21.62
2018-02-21T19:44:52.799Z,19.98
2018-02-21T19:47:21.662Z,22.73
2018-02-21T19:49:50.551Z,21.10
2018-02-21T19:52:19.436Z,21.62
2018-02-21T19:54:48.340Z,18.98
2018-02-21T19:57:17.211Z,20.23
2018-02-21T19:59:46.083Z,18.55
2018-02-21T20:02:14.988Z,20.05
2018-02-21T20:04:43.845Z,20.05
2018-02-21T20:07:12.725Z,19.45
2018-02-21T20:09:41.615Z,18.50
2018-02-21T20:12:10.455Z,18.80
2018-02-21T20:14:39.326Z,20.27
2018-02-21T20:17:08.187Z,19.67
2018-02-21T20:19:37.064Z,18.67
2018-02-21T20:22:05.918Z,19.42
2018-02-21T20:24:34.776Z,19.45
2018-02-21T20:27:03.609Z,18.62
2018-02-21T20:29:32.483Z,22.62
2018-02-21T20:32:01.340Z,19.58
2018-02-21T20:34:30.677Z,18.23
2018-02-21T20:36:59.542Z,17.70
2018-02-21T20:39:28.425Z,19.67
2018-02-21T20:41:57.297Z,19.70
2018-02-21T20:44:26.136Z,22.48
2018-02-21T20:46:55.478Z,20.05
2018-02-21T20:49:24.328Z,19.98
2018-02-21T20:51:53.237Z,23.67
2018-02-21T20:54:22.080Z,18.20
2018-02-21T20:56:50.928Z,19.60
2018-02-21T20:59:19.787Z,19.52
2018-02-21T21:01:48.662Z,17.60
2018-02-21T21:04:17.496Z,20.23
2018-02-21T21:06:46.558Z,17.33
2018-02-21T21:09:15.441Z,21.23
2018-02-21T21:11:44.242Z,19.55
2018-02-21T21:14:13.098Z,18.55
2018-02-21T21:16:41.982Z,18.45
2018-02-21T21:19:10.892Z,20.95
2018-02-21T21:21:39.749Z,19.42
2018-02-21T21:24:08.550Z,20.50
2018-02-21T21:26:37.442Z,20.50
2018-02-21T21:29:06.291Z,20.35
2018-02-21T21:31:35.163Z,21.52
2018-02-21T21:34:04.024Z,20.30
2018-02-21T21:36:32.914Z,19.58
2018-02-21T21:39:01.744Z,20.02
2018-02-21T21:41:30.594Z,19.77
2018-02-21T21:43:59.449Z,19.67
2018-02-21T21:46:28.270Z,20.08
2018-02-21T21:48:57.199Z,19.73
2018-02-21T21:51:26.160Z,22.33
2018-02-21T21:53:55.013Z,27.75
2018-02-21T21:56:23.905Z,22.55
2018-02-21T21:58:52.743Z,24.95
2018-02-21T22:01:21.682Z,24.12
2018-02-21T22:03:50.562Z,23.05
2018-02-21T22:06:19.391Z,23.05
2018-02-21T22:08:48.219Z,21.33
2018-02-21T22:11:17.078Z,22.87
2018-02-21T22:13:45.912Z,23.38
2018-02-21T22:16:14.758Z,23.42
2018-02-21T22:18:43.576Z,22.92
2018-02-21T22:21:12.437Z,22.10
2018-02-21T22:23:41.261Z,21.33
2018-02-21T22:26:10.138Z,21.33
2018-02-21T22:28:38.969Z,22.62
2018-02-21T22:31:07.774Z,22.42
2018-02-21T22:33:36.756Z,21.27
2018-02-21T22:36:05.558Z,19.70
2018-02-21T22:38:34.529Z,18.70
2018-02-21T22:41:03.383Z,19.62
2018-02-21T22:43:32.276Z,24.52
2018-02-21T22:46:01.152Z,23.45
2018-02-21T22:48:29.969Z,20.98
2018-02-21T22:50:58.857Z,20.48
2018-02-21T22:53:27.697Z,19.60
2018-02-21T22:55:56.531Z,30.62
2018-02-21T22:58:25.346Z,19.37
2018-02-21T23:00:54.253Z,20.40
2018-02-21T23:03:23.085Z,17.80
2018-02-21T23:05:52.631Z,18.05
2018-02-21T23:08:21.466Z,19.02
2018-02-21T23:10:50.311Z,18.60
2018-02-21T23:13:19.381Z,19.80
2018-02-21T23:15:48.201Z,19.33
2018-02-21T23:18:17.065Z,18.33
2018-02-21T23:20:45.893Z,18.87
2018-02-21T23:23:14.709Z,18.42
2018-02-21T23:25:43.627Z,21.95
2018-02-21T23:28:15.450Z,20.83
2018-02-21T23:30:45.380Z,21.08
2018-02-21T23:33:14.689Z,18.52
2018-02-21T23:35:45.538Z,18.02
2018-02-21T23:38:14.614Z,15.98
2018-02-21T23:40:43.634Z,17.87
2018-02-21T23:43:12.468Z,18.77
2018-02-21T23:45:41.492Z,17.35
2018-02-21T23:48:10.430Z,16.12
2018-02-21T23:50:41.148Z,17.87
2018-02-21T23:53:11.395Z,17.30
2018-02-21T23:55:41.115Z,16.70
2018-02-21T23:58:10.999Z,17.08
